sensor_id;sensor_type;location;lat;lon;timestamp;P1;durP1;ratioP1;P2;durP2;ratioP2
11839;SDS011;5979;50.800;4.904;2023-12-22T00:01:29;11.75;;;3.70;;
11839;SDS011;5979;50.800;4.904;2023-12-22T00:03:55;12.18;;;3.92;;
11839;SDS011;5979;50.800;4.904;2023-12-22T00:06:21;6.07;;;3.30;;
11839;SDS011;5979;50.800;4.904;2023-12-22T00:08:47;8.45;;;3.22;;
11839;SDS011;5979;50.800;4.904;2023-12-22T00:11:13;6.38;;;2.67;;
11839;SDS011;5979;50.800;4.904;2023-12-22T00:13:39;7.55;;;2.67;;
11839;SDS011;5979;50.800;4.904;2023-12-22T00:16:04;10.48;;;2.92;;
11839;SDS011;5979;50.800;4.904;2023-12-22T00:18:30;15.27;;;3.42;;
11839;SDS011;5979;50.800;4.904;2023-12-22T00:20:56;14.73;;;3.47;;
11839;SDS011;5979;50.800;4.904;2023-12-22T00:23:22;13.20;;;2.97;;
11839;SDS011;5979;50.800;4.904;2023-12-22T00:25:48;13.13;;;3.22;;
11839;SDS011;5979;50.800;4.904;2023-12-22T00:28:13;12.90;;;3.45;;
11839;SDS011;5979;50.800;4.904;2023-12-22T00:30:39;10.65;;;3.42;;
11839;SDS011;5979;50.800;4.904;2023-12-22T00:33:05;8.98;;;3.28;;
11839;SDS011;5979;50.800;4.904;2023-12-22T00:35:31;8.95;;;3.20;;
11839;SDS011;5979;50.800;4.904;2023-12-22T00:37:56;8.93;;;2.78;;
11839;SDS011;5979;50.800;4.904;2023-12-22T00:40:22;8.65;;;3.17;;
11839;SDS011;5979;50.800;4.904;2023-12-22T00:42:48;13.88;;;3.88;;
11839;SDS011;5979;50.800;4.904;2023-12-22T00:45:13;8.52;;;2.83;;
11839;SDS011;5979;50.800;4.904;2023-12-22T00:47:39;9.65;;;2.78;;
11839;SDS011;5979;50.800;4.904;2023-12-22T00:50:05;7.70;;;2.85;;
11839;SDS011;5979;50.800;4.904;2023-12-22T00:52:31;8.95;;;2.45;;
11839;SDS011;5979;50.800;4.904;2023-12-22T00:54:57;10.85;;;2.88;;
11839;SDS011;5979;50.800;4.904;2023-12-22T00:57:23;9.38;;;2.75;;
11839;SDS011;5979;50.800;4.904;2023-12-22T00:59:48;7.78;;;2.50;;
11839;SDS011;5979;50.800;4.904;2023-12-22T01:02:14;8.02;;;2.45;;
11839;SDS011;5979;50.800;4.904;2023-12-22T01:04:40;9.48;;;2.50;;
11839;SDS011;5979;50.800;4.904;2023-12-22T01:07:09;9.07;;;3.10;;
11839;SDS011;5979;50.800;4.904;2023-12-22T01:09:36;7.85;;;2.80;;
11839;SDS011;5979;50.800;4.904;2023-12-22T01:12:05;7.47;;;2.90;;
11839;SDS011;5979;50.800;4.904;2023-12-22T01:14:31;8.35;;;2.85;;
11839;SDS011;5979;50.800;4.904;2023-12-22T01:16:57;6.85;;;2.88;;
11839;SDS011;5979;50.800;4.904;2023-12-22T01:19:25;11.32;;;2.88;;
11839;SDS011;5979;50.800;4.904;2023-12-22T01:21:51;11.50;;;3.22;;
11839;SDS011;5979;50.800;4.904;2023-12-22T01:24:16;12.98;;;3.40;;
11839;SDS011;5979;50.800;4.904;2023-12-22T01:26:42;12.23;;;3.30;;
11839;SDS011;5979;50.800;4.904;2023-12-22T01:29:08;8.63;;;3.25;;
11839;SDS011;5979;50.800;4.904;2023-12-22T01:31:33;13.48;;;4.03;;
11839;SDS011;5979;50.800;4.904;2023-12-22T01:33:59;9.38;;;3.28;;
11839;SDS011;5979;50.800;4.904;2023-12-22T01:36:25;13.20;;;2.65;;
11839;SDS011;5979;50.800;4.904;2023-12-22T01:38:51;10.15;;;2.85;;
11839;SDS011;5979;50.800;4.904;2023-12-22T01:41:16;11.30;;;3.13;;
11839;SDS011;5979;50.800;4.904;2023-12-22T01:43:42;12.88;;;3.78;;
11839;SDS011;5979;50.800;4.904;2023-12-22T01:46:08;12.23;;;3.17;;
11839;SDS011;5979;50.800;4.904;2023-12-22T01:48:36;13.48;;;3.55;;
11839;SDS011;5979;50.800;4.904;2023-12-22T01:51:02;8.40;;;2.80;;
11839;SDS011;5979;50.800;4.904;2023-12-22T01:53:29;8.23;;;3.60;;
11839;SDS011;5979;50.800;4.904;2023-12-22T01:55:55;11.45;;;3.10;;
11839;SDS011;5979;50.800;4.904;2023-12-22T01:58:23;13.77;;;3.45;;
11839;SDS011;5979;50.800;4.904;2023-12-22T02:00:49;10.90;;;3.35;;
11839;SDS011;5979;50.800;4.904;2023-12-22T02:03:14;9.95;;;3.25;;
11839;SDS011;5979;50.800;4.904;2023-12-22T02:05:42;14.82;;;3.55;;
11839;SDS011;5979;50.800;4.904;2023-12-22T02:08:09;13.93;;;3.63;;
11839;SDS011;5979;50.800;4.904;2023-12-22T02:10:36;12.38;;;3.28;;
11839;SDS011;5979;50.800;4.904;2023-12-22T02:13:02;9.70;;;3.00;;
11839;SDS011;5979;50.800;4.904;2023-12-22T02:15:28;12.73;;;3.30;;
11839;SDS011;5979;50.800;4.904;2023-12-22T02:17:55;13.65;;;3.17;;
11839;SDS011;5979;50.800;4.904;2023-12-22T02:20:27;9.80;;;3.40;;
11839;SDS011;5979;50.800;4.904;2023-12-22T02:22:55;14.40;;;3.65;;
11839;SDS011;5979;50.800;4.904;2023-12-22T02:25:20;14.98;;;3.83;;
11839;SDS011;5979;50.800;4.904;2023-12-22T02:27:50;8.80;;;3.13;;
11839;SDS011;5979;50.800;4.904;2023-12-22T02:32:56;12.13;;;3.65;;
11839;SDS011;5979;50.800;4.904;2023-12-22T02:35:26;12.55;;;3.83;;
11839;SDS011;5979;50.800;4.904;2023-12-22T02:37:53;19.55;;;3.80;;
11839;SDS011;5979;50.800;4.904;2023-12-22T02:40:21;8.68;;;3.30;;
11839;SDS011;5979;50.800;4.904;2023-12-22T02:42:48;13.93;;;3.47;;
11839;SDS011;5979;50.800;4.904;2023-12-22T02:45:15;14.60;;;3.97;;
11839;SDS011;5979;50.800;4.904;2023-12-22T02:47:42;11.90;;;3.72;;
11839;SDS011;5979;50.800;4.904;2023-12-22T02:50:08;8.25;;;2.95;;
11839;SDS011;5979;50.800;4.904;2023-12-22T02:52:34;10.57;;;4.45;;
11839;SDS011;5979;50.800;4.904;2023-12-22T02:55:00;12.27;;;3.78;;
11839;SDS011;5979;50.800;4.904;2023-12-22T02:57:27;11.25;;;4.07;;
11839;SDS011;5979;50.800;4.904;2023-12-22T02:59:52;12.40;;;4.10;;
11839;SDS011;5979;50.800;4.904;2023-12-22T03:02:18;11.27;;;3.50;;
11839;SDS011;5979;50.800;4.904;2023-12-22T03:04:44;8.38;;;3.35;;
11839;SDS011;5979;50.800;4.904;2023-12-22T03:07:11;13.00;;;3.42;;
11839;SDS011;5979;50.800;4.904;2023-12-22T03:09:40;19.73;;;3.60;;
11839;SDS011;5979;50.800;4.904;2023-12-22T03:12:07;8.10;;;3.38;;
11839;SDS011;5979;50.800;4.904;2023-12-22T03:14:33;6.97;;;3.40;;
11839;SDS011;5979;50.800;4.904;2023-12-22T03:16:59;9.93;;;3.13;;
11839;SDS011;5979;50.800;4.904;2023-12-22T03:19:25;9.23;;;3.20;;
11839;SDS011;5979;50.800;4.904;2023-12-22T03:21:51;12.57;;;2.85;;
11839;SDS011;5979;50.800;4.904;2023-12-22T03:24:17;10.40;;;3.47;;
11839;SDS011;5979;50.800;4.904;2023-12-22T03:26:47;6.40;;;2.63;;
11839;SDS011;5979;50.800;4.904;2023-12-22T03:29:13;9.93;;;2.60;;
11839;SDS011;5979;50.800;4.904;2023-12-22T03:31:39;6.18;;;2.60;;
11839;SDS011;5979;50.800;4.904;2023-12-22T03:34:05;8.20;;;2.60;;
11839;SDS011;5979;50.800;4.904;2023-12-22T03:36:33;6.63;;;2.33;;
11839;SDS011;5979;50.800;4.904;2023-12-22T03:38:59;4.57;;;2.53;;
11839;SDS011;5979;50.800;4.904;2023-12-22T03:41:25;4.97;;;2.15;;
11839;SDS011;5979;50.800;4.904;2023-12-22T03:43:51;6.40;;;2.30;;
11839;SDS011;5979;50.800;4.904;2023-12-22T03:46:17;7.13;;;2.25;;
11839;SDS011;5979;50.800;4.904;2023-12-22T03:48:43;8.23;;;2.22;;
11839;SDS011;5979;50.800;4.904;2023-12-22T03:51:09;8.18;;;2.00;;
11839;SDS011;5979;50.800;4.904;2023-12-22T03:53:37;5.75;;;2.20;;
11839;SDS011;5979;50.800;4.904;2023-12-22T03:56:03;5.88;;;2.42;;
11839;SDS011;5979;50.800;4.904;2023-12-22T03:58:29;7.63;;;2.35;;
11839;SDS011;5979;50.800;4.904;2023-12-22T04:00:55;11.38;;;2.45;;
11839;SDS011;5979;50.800;4.904;2023-12-22T04:03:22;10.13;;;2.75;;
11839;SDS011;5979;50.800;4.904;2023-12-22T04:05:47;6.47;;;2.40;;
11839;SDS011;5979;50.800;4.904;2023-12-22T04:08:13;11.00;;;3.00;;
11839;SDS011;5979;50.800;4.904;2023-12-22T04:10:39;7.47;;;2.50;;
11839;SDS011;5979;50.800;4.904;2023-12-22T04:13:05;9.65;;;3.33;;
11839;SDS011;5979;50.800;4.904;2023-12-22T04:15:30;9.82;;;3.45;;
11839;SDS011;5979;50.800;4.904;2023-12-22T04:17:56;10.85;;;3.90;;
11839;SDS011;5979;50.800;4.904;2023-12-22T04:20:21;8.05;;;2.78;;
11839;SDS011;5979;50.800;4.904;2023-12-22T04:22:47;6.18;;;3.28;;
11839;SDS011;5979;50.800;4.904;2023-12-22T04:25:13;13.00;;;3.70;;
11839;SDS011;5979;50.800;4.904;2023-12-22T04:27:38;10.45;;;3.50;;
11839;SDS011;5979;50.800;4.904;2023-12-22T04:30:04;7.88;;;2.70;;
11839;SDS011;5979;50.800;4.904;2023-12-22T04:32:30;8.00;;;3.88;;
11839;SDS011;5979;50.800;4.904;2023-12-22T04:34:56;9.73;;;2.95;;
11839;SDS011;5979;50.800;4.904;2023-12-22T04:37:22;9.00;;;2.90;;
11839;SDS011;5979;50.800;4.904;2023-12-22T04:39:49;8.73;;;2.58;;
11839;SDS011;5979;50.800;4.904;2023-12-22T04:42:15;10.32;;;2.90;;
11839;SDS011;5979;50.800;4.904;2023-12-22T04:44:40;12.38;;;3.08;;
11839;SDS011;5979;50.800;4.904;2023-12-22T04:47:06;9.52;;;3.15;;
11839;SDS011;5979;50.800;4.904;2023-12-22T04:49:32;11.00;;;2.97;;
11839;SDS011;5979;50.800;4.904;2023-12-22T04:51:58;9.30;;;3.15;;
11839;SDS011;5979;50.800;4.904;2023-12-22T04:54:23;9.52;;;3.08;;
11839;SDS011;5979;50.800;4.904;2023-12-22T04:56:49;12.50;;;3.70;;
11839;SDS011;5979;50.800;4.904;2023-12-22T04:59:15;10.98;;;3.63;;
11839;SDS011;5979;50.800;4.904;2023-12-22T05:01:40;12.60;;;3.38;;
11839;SDS011;5979;50.800;4.904;2023-12-22T05:04:07;9.23;;;3.00;;
11839;SDS011;5979;50.800;4.904;2023-12-22T05:06:34;11.00;;;3.97;;
11839;SDS011;5979;50.800;4.904;2023-12-22T05:09:00;13.45;;;4.18;;
11839;SDS011;5979;50.800;4.904;2023-12-22T05:11:25;14.15;;;3.83;;
11839;SDS011;5979;50.800;4.904;2023-12-22T05:13:51;9.68;;;3.63;;
11839;SDS011;5979;50.800;4.904;2023-12-22T05:16:17;13.90;;;4.00;;
11839;SDS011;5979;50.800;4.904;2023-12-22T05:18:43;18.00;;;4.30;;
11839;SDS011;5979;50.800;4.904;2023-12-22T05:21:11;12.90;;;4.32;;
11839;SDS011;5979;50.800;4.904;2023-12-22T05:23:40;12.80;;;3.65;;
11839;SDS011;5979;50.800;4.904;2023-12-22T05:26:05;12.68;;;4.63;;
11839;SDS011;5979;50.800;4.904;2023-12-22T05:28:32;15.40;;;3.88;;
11839;SDS011;5979;50.800;4.904;2023-12-22T05:30:57;18.77;;;4.18;;
11839;SDS011;5979;50.800;4.904;2023-12-22T05:33:23;18.85;;;4.60;;
11839;SDS011;5979;50.800;4.904;2023-12-22T05:35:49;16.25;;;4.18;;
11839;SDS011;5979;50.800;4.904;2023-12-22T05:38:14;17.35;;;4.20;;
11839;SDS011;5979;50.800;4.904;2023-12-22T05:40:40;15.35;;;4.32;;
11839;SDS011;5979;50.800;4.904;2023-12-22T05:43:06;16.15;;;4.30;;
11839;SDS011;5979;50.800;4.904;2023-12-22T05:45:32;13.75;;;4.85;;
11839;SDS011;5979;50.800;4.904;2023-12-22T05:47:57;15.68;;;4.78;;
11839;SDS011;5979;50.800;4.904;2023-12-22T05:50:23;18.10;;;4.22;;
11839;SDS011;5979;50.800;4.904;2023-12-22T05:52:49;16.25;;;4.22;;
11839;SDS011;5979;50.800;4.904;2023-12-22T05:55:15;17.38;;;4.43;;
11839;SDS011;5979;50.800;4.904;2023-12-22T05:57:40;16.73;;;4.15;;
11839;SDS011;5979;50.800;4.904;2023-12-22T06:00:06;20.42;;;5.32;;
11839;SDS011;5979;50.800;4.904;2023-12-22T06:02:34;15.30;;;4.15;;
11839;SDS011;5979;50.800;4.904;2023-12-22T06:05:00;16.60;;;4.97;;
11839;SDS011;5979;50.800;4.904;2023-12-22T06:07:26;17.42;;;4.03;;
11839;SDS011;5979;50.800;4.904;2023-12-22T06:09:52;19.05;;;4.78;;
11839;SDS011;5979;50.800;4.904;2023-12-22T06:12:18;17.40;;;4.80;;
11839;SDS011;5979;50.800;4.904;2023-12-22T06:14:43;16.98;;;5.70;;
11839;SDS011;5979;50.800;4.904;2023-12-22T06:17:09;17.05;;;4.82;;
11839;SDS011;5979;50.800;4.904;2023-12-22T06:19:35;16.85;;;4.70;;
11839;SDS011;5979;50.800;4.904;2023-12-22T06:22:01;15.63;;;4.32;;
11839;SDS011;5979;50.800;4.904;2023-12-22T06:24:27;15.95;;;4.35;;
11839;SDS011;5979;50.800;4.904;2023-12-22T06:26:53;15.07;;;4.85;;
11839;SDS011;5979;50.800;4.904;2023-12-22T06:29:18;15.40;;;4.50;;
11839;SDS011;5979;50.800;4.904;2023-12-22T06:31:44;14.18;;;4.15;;
11839;SDS011;5979;50.800;4.904;2023-12-22T06:34:11;16.42;;;5.35;;
11839;SDS011;5979;50.800;4.904;2023-12-22T06:36:36;17.98;;;5.10;;
11839;SDS011;5979;50.800;4.904;2023-12-22T06:39:02;17.42;;;4.47;;
11839;SDS011;5979;50.800;4.904;2023-12-22T06:41:28;14.60;;;4.35;;
11839;SDS011;5979;50.800;4.904;2023-12-22T06:43:56;14.65;;;4.55;;
11839;SDS011;5979;50.800;4.904;2023-12-22T06:46:23;20.25;;;4.30;;
11839;SDS011;5979;50.800;4.904;2023-12-22T06:48:52;17.08;;;4.15;;
11839;SDS011;5979;50.800;4.904;2023-12-22T06:51:23;11.52;;;3.50;;
11839;SDS011;5979;50.800;4.904;2023-12-22T06:53:51;13.18;;;5.05;;
11839;SDS011;5979;50.800;4.904;2023-12-22T06:56:27;15.38;;;4.28;;
11839;SDS011;5979;50.800;4.904;2023-12-22T06:58:55;15.15;;;3.40;;
11839;SDS011;5979;50.800;4.904;2023-12-22T07:01:27;13.55;;;4.63;;
11839;SDS011;5979;50.800;4.904;2023-12-22T07:03:54;14.88;;;3.90;;
11839;SDS011;5979;50.800;4.904;2023-12-22T07:06:20;15.48;;;4.32;;
11839;SDS011;5979;50.800;4.904;2023-12-22T07:08:57;12.77;;;3.88;;
11839;SDS011;5979;50.800;4.904;2023-12-22T07:11:45;11.10;;;3.63;;
11839;SDS011;5979;50.800;4.904;2023-12-22T07:14:15;13.23;;;3.95;;
11839;SDS011;5979;50.800;4.904;2023-12-22T07:16:41;9.90;;;3.50;;
11839;SDS011;5979;50.800;4.904;2023-12-22T07:19:11;11.35;;;3.30;;
11839;SDS011;5979;50.800;4.904;2023-12-22T07:21:40;9.35;;;3.47;;
11839;SDS011;5979;50.800;4.904;2023-12-22T07:24:06;6.60;;;2.65;;
11839;SDS011;5979;50.800;4.904;2023-12-22T07:26:32;8.00;;;2.67;;
11839;SDS011;5979;50.800;4.904;2023-12-22T07:28:58;11.32;;;3.13;;
11839;SDS011;5979;50.800;4.904;2023-12-22T07:31:24;11.52;;;2.88;;
11839;SDS011;5979;50.800;4.904;2023-12-22T07:33:50;10.27;;;2.78;;
11839;SDS011;5979;50.800;4.904;2023-12-22T07:36:16;8.05;;;2.53;;
11839;SDS011;5979;50.800;4.904;2023-12-22T07:38:43;8.25;;;2.90;;
11839;SDS011;5979;50.800;4.904;2023-12-22T07:41:09;8.18;;;2.70;;
11839;SDS011;5979;50.800;4.904;2023-12-22T07:43:35;7.28;;;2.17;;
11839;SDS011;5979;50.800;4.904;2023-12-22T07:46:01;6.75;;;2.33;;
11839;SDS011;5979;50.800;4.904;2023-12-22T07:48:27;8.80;;;2.90;;
11839;SDS011;5979;50.800;4.904;2023-12-22T07:50:53;8.45;;;2.15;;
11839;SDS011;5979;50.800;4.904;2023-12-22T07:53:19;9.00;;;2.40;;
11839;SDS011;5979;50.800;4.904;2023-12-22T07:55:45;5.55;;;2.45;;
11839;SDS011;5979;50.800;4.904;2023-12-22T07:58:12;4.32;;;2.03;;
11839;SDS011;5979;50.800;4.904;2023-12-22T08:00:38;9.68;;;2.70;;
11839;SDS011;5979;50.800;4.904;2023-12-22T08:03:03;7.00;;;2.13;;
11839;SDS011;5979;50.800;4.904;2023-12-22T08:05:29;5.05;;;2.30;;
11839;SDS011;5979;50.800;4.904;2023-12-22T08:07:55;3.28;;;1.90;;
11839;SDS011;5979;50.800;4.904;2023-12-22T08:10:21;3.65;;;2.00;;
11839;SDS011;5979;50.800;4.904;2023-12-22T08:12:47;8.07;;;2.53;;
11839;SDS011;5979;50.800;4.904;2023-12-22T08:15:13;3.67;;;2.08;;
11839;SDS011;5979;50.800;4.904;2023-12-22T08:17:48;4.20;;;2.00;;
11839;SDS011;5979;50.800;4.904;2023-12-22T08:20:18;6.97;;;2.83;;
11839;SDS011;5979;50.800;4.904;2023-12-22T08:22:47;4.78;;;2.03;;
11839;SDS011;5979;50.800;4.904;2023-12-22T08:25:14;2.60;;;2.08;;
11839;SDS011;5979;50.800;4.904;2023-12-22T08:27:41;6.70;;;2.30;;
11839;SDS011;5979;50.800;4.904;2023-12-22T08:30:07;4.57;;;1.88;;
11839;SDS011;5979;50.800;4.904;2023-12-22T08:32:36;6.28;;;1.85;;
11839;SDS011;5979;50.800;4.904;2023-12-22T08:35:02;4.35;;;1.73;;
11839;SDS011;5979;50.800;4.904;2023-12-22T08:37:29;5.68;;;1.98;;
11839;SDS011;5979;50.800;4.904;2023-12-22T08:39:55;4.82;;;2.08;;
11839;SDS011;5979;50.800;4.904;2023-12-22T08:42:21;6.55;;;1.80;;
11839;SDS011;5979;50.800;4.904;2023-12-22T08:44:49;3.17;;;1.80;;
11839;SDS011;5979;50.800;4.904;2023-12-22T08:47:15;2.60;;;1.45;;
11839;SDS011;5979;50.800;4.904;2023-12-22T08:49:41;3.13;;;1.63;;
11839;SDS011;5979;50.800;4.904;2023-12-22T08:52:07;2.40;;;1.58;;
11839;SDS011;5979;50.800;4.904;2023-12-22T08:54:33;5.32;;;1.92;;
11839;SDS011;5979;50.800;4.904;2023-12-22T08:57:00;4.25;;;1.90;;
11839;SDS011;5979;50.800;4.904;2023-12-22T08:59:26;1.88;;;1.67;;
11839;SDS011;5979;50.800;4.904;2023-12-22T09:01:52;2.00;;;1.50;;
11839;SDS011;5979;50.800;4.904;2023-12-22T09:04:18;4.05;;;1.70;;
11839;SDS011;5979;50.800;4.904;2023-12-22T09:06:46;4.65;;;1.85;;
11839;SDS011;5979;50.800;4.904;2023-12-22T09:09:11;3.03;;;1.75;;
11839;SDS011;5979;50.800;4.904;2023-12-22T09:11:37;3.38;;;1.90;;
11839;SDS011;5979;50.800;4.904;2023-12-22T09:14:04;2.50;;;2.30;;
11839;SDS011;5979;50.800;4.904;2023-12-22T09:16:34;1.95;;;1.63;;
11839;SDS011;5979;50.800;4.904;2023-12-22T09:21:45;3.55;;;1.88;;
11839;SDS011;5979;50.800;4.904;2023-12-22T09:24:11;2.38;;;2.17;;
11839;SDS011;5979;50.800;4.904;2023-12-22T09:26:37;3.42;;;1.90;;
11839;SDS011;5979;50.800;4.904;2023-12-22T09:29:03;3.15;;;2.20;;
11839;SDS011;5979;50.800;4.904;2023-12-22T09:31:29;4.82;;;2.40;;
11839;SDS011;5979;50.800;4.904;2023-12-22T09:33:54;3.10;;;2.30;;
11839;SDS011;5979;50.800;4.904;2023-12-22T09:36:20;4.15;;;2.80;;
11839;SDS011;5979;50.800;4.904;2023-12-22T09:38:46;2.67;;;2.47;;
11839;SDS011;5979;50.800;4.904;2023-12-22T09:41:12;2.40;;;2.20;;
11839;SDS011;5979;50.800;4.904;2023-12-22T09:43:37;2.90;;;2.20;;
11839;SDS011;5979;50.800;4.904;2023-12-22T09:46:05;2.85;;;2.25;;
11839;SDS011;5979;50.800;4.904;2023-12-22T09:51:26;2.65;;;2.50;;
11839;SDS011;5979;50.800;4.904;2023-12-22T09:53:53;2.78;;;2.20;;
11839;SDS011;5979;50.800;4.904;2023-12-22T09:56:21;3.97;;;3.03;;
11839;SDS011;5979;50.800;4.904;2023-12-22T09:58:49;3.03;;;2.55;;
11839;SDS011;5979;50.800;4.904;2023-12-22T10:01:16;2.80;;;2.50;;
11839;SDS011;5979;50.800;4.904;2023-12-22T10:03:47;2.72;;;2.47;;
11839;SDS011;5979;50.800;4.904;2023-12-22T10:06:12;3.53;;;2.20;;
11839;SDS011;5979;50.800;4.904;2023-12-22T10:08:38;2.50;;;2.13;;
11839;SDS011;5979;50.800;4.904;2023-12-22T10:11:05;4.78;;;2.20;;
11839;SDS011;5979;50.800;4.904;2023-12-22T10:13:33;4.05;;;2.35;;
11839;SDS011;5979;50.800;4.904;2023-12-22T10:16:01;3.30;;;2.67;;
11839;SDS011;5979;50.800;4.904;2023-12-22T10:18:29;2.85;;;2.65;;
11839;SDS011;5979;50.800;4.904;2023-12-22T10:20:55;2.85;;;1.95;;
11839;SDS011;5979;50.800;4.904;2023-12-22T10:23:21;2.50;;;1.58;;
11839;SDS011;5979;50.800;4.904;2023-12-22T10:25:46;2.97;;;1.75;;
11839;SDS011;5979;50.800;4.904;2023-12-22T10:28:12;3.55;;;2.03;;
11839;SDS011;5979;50.800;4.904;2023-12-22T10:30:39;5.20;;;1.60;;
11839;SDS011;5979;50.800;4.904;2023-12-22T10:33:06;2.92;;;2.10;;
11839;SDS011;5979;50.800;4.904;2023-12-22T10:35:32;3.78;;;1.40;;
11839;SDS011;5979;50.800;4.904;2023-12-22T10:37:58;1.55;;;1.45;;
11839;SDS011;5979;50.800;4.904;2023-12-22T10:40:24;2.72;;;1.55;;
11839;SDS011;5979;50.800;4.904;2023-12-22T10:42:50;2.63;;;1.70;;
11839;SDS011;5979;50.800;4.904;2023-12-22T10:45:17;2.55;;;1.17;;
11839;SDS011;5979;50.800;4.904;2023-12-22T10:47:43;2.60;;;1.25;;
11839;SDS011;5979;50.800;4.904;2023-12-22T10:53:06;2.78;;;1.55;;
11839;SDS011;5979;50.800;4.904;2023-12-22T10:55:32;1.98;;;1.52;;
11839;SDS011;5979;50.800;4.904;2023-12-22T10:58:01;2.28;;;1.50;;
11839;SDS011;5979;50.800;4.904;2023-12-22T11:00:31;3.70;;;1.63;;
11839;SDS011;5979;50.800;4.904;2023-12-22T11:03:01;3.80;;;1.80;;
11839;SDS011;5979;50.800;4.904;2023-12-22T11:05:30;2.95;;;1.45;;
11839;SDS011;5979;50.800;4.904;2023-12-22T11:07:58;1.60;;;1.50;;
11839;SDS011;5979;50.800;4.904;2023-12-22T11:10:28;2.13;;;1.55;;
11839;SDS011;5979;50.800;4.904;2023-12-22T11:12:57;3.00;;;1.48;;
11839;SDS011;5979;50.800;4.904;2023-12-22T11:15:24;1.42;;;1.40;;
11839;SDS011;5979;50.800;4.904;2023-12-22T11:17:52;3.15;;;1.35;;
11839;SDS011;5979;50.800;4.904;2023-12-22T11:20:20;2.83;;;1.67;;
11839;SDS011;5979;50.800;4.904;2023-12-22T11:22:49;3.85;;;1.50;;
11839;SDS011;5979;50.800;4.904;2023-12-22T11:25:16;2.17;;;1.80;;
11839;SDS011;5979;50.800;4.904;2023-12-22T11:27:43;3.97;;;1.80;;
11839;SDS011;5979;50.800;4.904;2023-12-22T11:30:12;1.90;;;1.70;;
11839;SDS011;5979;50.800;4.904;2023-12-22T11:32:39;4.78;;;1.98;;
11839;SDS011;5979;50.800;4.904;2023-12-22T11:35:05;3.38;;;1.85;;
11839;SDS011;5979;50.800;4.904;2023-12-22T11:37:33;2.70;;;2.00;;
11839;SDS011;5979;50.800;4.904;2023-12-22T11:42:51;1.73;;;1.30;;
11839;SDS011;5979;50.800;4.904;2023-12-22T11:45:18;2.20;;;1.40;;
11839;SDS011;5979;50.800;4.904;2023-12-22T11:47:48;3.28;;;1.77;;
11839;SDS011;5979;50.800;4.904;2023-12-22T11:50:24;1.70;;;1.17;;
11839;SDS011;5979;50.800;4.904;2023-12-22T11:52:54;3.38;;;1.27;;
11839;SDS011;5979;50.800;4.904;2023-12-22T11:55:55;3.95;;;1.50;;
11839;SDS011;5979;50.800;4.904;2023-12-22T11:58:34;1.05;;;1.05;;
11839;SDS011;5979;50.800;4.904;2023-12-22T12:01:16;2.55;;;1.30;;
11839;SDS011;5979;50.800;4.904;2023-12-22T12:03:50;4.95;;;1.40;;
11839;SDS011;5979;50.800;4.904;2023-12-22T12:08:51;3.13;;;1.27;;
11839;SDS011;5979;50.800;4.904;2023-12-22T12:11:18;2.10;;;1.25;;
11839;SDS011;5979;50.800;4.904;2023-12-22T12:13:45;1.50;;;1.38;;
11839;SDS011;5979;50.800;4.904;2023-12-22T12:16:12;2.20;;;1.25;;
11839;SDS011;5979;50.800;4.904;2023-12-22T12:18:39;3.28;;;1.23;;
11839;SDS011;5979;50.800;4.904;2023-12-22T12:21:09;2.17;;;1.30;;
11839;SDS011;5979;50.800;4.904;2023-12-22T12:23:36;5.47;;;1.60;;
11839;SDS011;5979;50.800;4.904;2023-12-22T12:26:02;0.98;;;0.98;;
11839;SDS011;5979;50.800;4.904;2023-12-22T12:28:28;3.15;;;1.27;;
11839;SDS011;5979;50.800;4.904;2023-12-22T12:30:59;3.00;;;1.10;;
11839;SDS011;5979;50.800;4.904;2023-12-22T12:33:27;2.40;;;1.30;;
11839;SDS011;5979;50.800;4.904;2023-12-22T12:35:54;2.38;;;1.30;;
11839;SDS011;5979;50.800;4.904;2023-12-22T12:38:28;2.17;;;1.27;;
11839;SDS011;5979;50.800;4.904;2023-12-22T12:41:30;1.38;;;1.10;;
11839;SDS011;5979;50.800;4.904;2023-12-22T12:43:57;2.35;;;1.10;;
11839;SDS011;5979;50.800;4.904;2023-12-22T12:46:31;1.80;;;1.10;;
11839;SDS011;5979;50.800;4.904;2023-12-22T12:49:04;1.10;;;1.00;;
11839;SDS011;5979;50.800;4.904;2023-12-22T12:51:30;1.05;;;1.05;;
11839;SDS011;5979;50.800;4.904;2023-12-22T12:54:00;2.97;;;1.23;;
11839;SDS011;5979;50.800;4.904;2023-12-22T12:56:26;1.90;;;1.30;;
11839;SDS011;5979;50.800;4.904;2023-12-22T12:58:52;4.93;;;1.13;;
11839;SDS011;5979;50.800;4.904;2023-12-22T13:01:18;1.77;;;1.10;;
11839;SDS011;5979;50.800;4.904;2023-12-22T13:03:55;4.35;;;1.63;;
11839;SDS011;5979;50.800;4.904;2023-12-22T13:06:22;2.42;;;1.48;;
11839;SDS011;5979;50.800;4.904;2023-12-22T13:08:48;2.47;;;1.15;;
11839;SDS011;5979;50.800;4.904;2023-12-22T13:11:15;2.65;;;0.90;;
11839;SDS011;5979;50.800;4.904;2023-12-22T13:14:00;3.40;;;1.40;;
11839;SDS011;5979;50.800;4.904;2023-12-22T13:16:26;1.33;;;1.23;;
11839;SDS011;5979;50.800;4.904;2023-12-22T13:18:54;3.22;;;1.20;;
11839;SDS011;5979;50.800;4.904;2023-12-22T13:21:23;2.90;;;1.23;;
11839;SDS011;5979;50.800;4.904;2023-12-22T13:26:34;3.03;;;1.30;;
11839;SDS011;5979;50.800;4.904;2023-12-22T13:29:00;3.53;;;1.05;;
11839;SDS011;5979;50.800;4.904;2023-12-22T13:31:26;3.78;;;1.15;;
11839;SDS011;5979;50.800;4.904;2023-12-22T13:33:52;3.78;;;1.25;;
11839;SDS011;5979;50.800;4.904;2023-12-22T13:36:18;2.75;;;1.33;;
11839;SDS011;5979;50.800;4.904;2023-12-22T13:38:48;3.58;;;1.20;;
11839;SDS011;5979;50.800;4.904;2023-12-22T13:41:14;2.25;;;1.20;;
11839;SDS011;5979;50.800;4.904;2023-12-22T13:43:40;3.97;;;1.45;;
11839;SDS011;5979;50.800;4.904;2023-12-22T13:46:06;2.30;;;1.20;;
11839;SDS011;5979;50.800;4.904;2023-12-22T13:48:36;2.42;;;1.80;;
11839;SDS011;5979;50.800;4.904;2023-12-22T13:51:02;2.30;;;1.13;;
11839;SDS011;5979;50.800;4.904;2023-12-22T13:53:28;3.58;;;1.25;;
11839;SDS011;5979;50.800;4.904;2023-12-22T13:56:00;1.67;;;1.10;;
11839;SDS011;5979;50.800;4.904;2023-12-22T13:58:26;3.17;;;1.15;;
11839;SDS011;5979;50.800;4.904;2023-12-22T14:00:52;6.25;;;1.23;;
11839;SDS011;5979;50.800;4.904;2023-12-22T14:03:18;2.03;;;1.00;;
11839;SDS011;5979;50.800;4.904;2023-12-22T14:05:48;2.25;;;1.20;;
11839;SDS011;5979;50.800;4.904;2023-12-22T14:08:14;0.85;;;0.85;;
11839;SDS011;5979;50.800;4.904;2023-12-22T14:10:46;2.90;;;1.17;;
11839;SDS011;5979;50.800;4.904;2023-12-22T14:13:14;3.22;;;1.08;;
11839;SDS011;5979;50.800;4.904;2023-12-22T14:15:43;3.15;;;1.30;;
11839;SDS011;5979;50.800;4.904;2023-12-22T14:18:09;2.15;;;1.38;;
11839;SDS011;5979;50.800;4.904;2023-12-22T14:20:35;1.50;;;1.13;;
11839;SDS011;5979;50.800;4.904;2023-12-22T14:23:01;2.65;;;1.27;;
11839;SDS011;5979;50.800;4.904;2023-12-22T14:25:27;3.05;;;1.40;;
11839;SDS011;5979;50.800;4.904;2023-12-22T14:27:53;3.47;;;1.33;;
11839;SDS011;5979;50.800;4.904;2023-12-22T14:30:22;4.07;;;1.13;;
11839;SDS011;5979;50.800;4.904;2023-12-22T14:32:48;5.38;;;1.10;;
11839;SDS011;5979;50.800;4.904;2023-12-22T14:35:14;4.22;;;1.50;;
11839;SDS011;5979;50.800;4.904;2023-12-22T14:37:40;5.45;;;1.77;;
11839;SDS011;5979;50.800;4.904;2023-12-22T14:42:50;3.70;;;1.58;;
11839;SDS011;5979;50.800;4.904;2023-12-22T14:45:16;2.45;;;1.20;;
11839;SDS011;5979;50.800;4.904;2023-12-22T14:47:42;1.13;;;1.05;;
11839;SDS011;5979;50.800;4.904;2023-12-22T14:50:07;4.80;;;1.20;;
11839;SDS011;5979;50.800;4.904;2023-12-22T14:52:33;3.55;;;1.10;;
11839;SDS011;5979;50.800;4.904;2023-12-22T14:55:00;1.52;;;0.90;;
11839;SDS011;5979;50.800;4.904;2023-12-22T14:57:26;2.55;;;1.27;;
11839;SDS011;5979;50.800;4.904;2023-12-22T14:59:54;3.05;;;1.40;;
11839;SDS011;5979;50.800;4.904;2023-12-22T15:02:20;3.65;;;1.50;;
11839;SDS011;5979;50.800;4.904;2023-12-22T15:04:45;2.95;;;1.30;;
11839;SDS011;5979;50.800;4.904;2023-12-22T15:07:17;2.30;;;1.40;;
11839;SDS011;5979;50.800;4.904;2023-12-22T15:09:49;1.50;;;1.13;;
11839;SDS011;5979;50.800;4.904;2023-12-22T15:12:16;2.97;;;1.45;;
11839;SDS011;5979;50.800;4.904;2023-12-22T15:14:45;3.13;;;1.73;;
11839;SDS011;5979;50.800;4.904;2023-12-22T15:17:12;2.78;;;1.15;;
11839;SDS011;5979;50.800;4.904;2023-12-22T15:19:41;3.97;;;1.40;;